UPSVAC Airport Information Service

Spokane International Airport

ICAO: KGEG Country: United States
Latitude: 47.6199 Longitude: -117.533
Latest Arrival : UPS1925 (KDFW-KGEG) Latest Departure : UPS184 (KGEG-KPDX)


WX CaptureLIVE
Data provided by noaa.gov | Fetched at 13:26:38

METAR : KGEG 141253Z 06010KT 10SM FEW030 FEW200 04/M11 A3021 RMK AO2 SLP236 T00391111

TAF : KGEG 141140Z 1412/1512 04006KT P6SM FEW200 FM141630 04013G18KT P6SM FEW200 FM141900 05016G24KT P6SM FEW200 FM150200 05009KT P6SM SKC


Runway Data for KGEG
Data provided by openaviationdata.com

Runway ID Mag Var Hdg Length Elevation Surface ILS Freq ILS Id ILS Slope
3 18 27° 8987 ft 2371 ft Asphalt 111.9 IOLJ 3
7 18 72° 8183 ft 2371 ft Asphalt -- -- --
21 18 207° 8987 ft 2371 ft Asphalt 111.1 IGEG 3
25 18 252° 8183 ft 2371 ft Asphalt -- -- --

Spokane International Airport, United States
Use only for reference purposes



Not for navigational purposes.